| time (UTC) | temp F | wind direction | speed knots | gust knots | rain 1hr in | rain 24hr in | rain mn in | humidity % | barometer mb |
| 20260901203754 | 95 | 216 | 1.7 | 3.5 | 0.00 | 0.00 | 0.00 | 49 | 1019.2 |
| 20260901203253 | 94 | 215 | 0.9 | 3.5 | 0.00 | 0.00 | 0.00 | 48 | 1019.3 |
| 20260901202747 | 94 | 215 | 0.9 | 1.7 | 0.00 | 0.00 | 0.00 | 51 | 1019.5 |
| 20260901202243 | 95 | 215 | 0.9 | 3.5 | 0.00 | 0.00 | 0.00 | 50 | 1019.6 |
| 20260901201739 | 93 | 215 | 1.7 | 3.5 | 0.00 | 0.00 | 0.00 | 52 | 1019.3 |
| 20260901201238 | 94 | 213 | 1.7 | 5.2 | 0.00 | 0.00 | 0.00 | 52 | 1019.6 |
| 20260901200738 | 94 | 215 | 0.9 | 2.6 | 0.00 | 0.00 | 0.00 | 50 | 1019.5 |
| 20260901200234 | 94 | 215 | 0.9 | 2.6 | 0.00 | 0.00 | 0.00 | 51 | 1019.7 |
| 20260901195732 | 93 | 208 | 0.0 | 0.9 | 0.00 | 0.00 | 0.00 | 52 | 1019.6 |
| 20260901195225 | 94 | 213 | 0.0 | 0.9 | 0.00 | 0.00 | 0.00 | 51 | 1019.9 |
| 20260901194721 | 94 | 213 | 0.0 | 1.7 | 0.00 | 0.00 | 0.00 | 53 | 1019.6 |
| 20260901194216 | 93 | 216 | 1.7 | 5.2 | 0.00 | 0.00 | 0.00 | 51 | 1019.5 |
| 20260901193712 | 93 | 208 | 0.0 | 3.5 | 0.00 | 0.00 | 0.00 | 52 | 1019.8 |
| 20260901193207 | 94 | 213 | 0.9 | 2.6 | 0.00 | 0.00 | 0.00 | 54 | 1019.9 |
| 20260901192706 | 94 | 213 | 3.5 | 5.2 | 0.00 | 0.00 | 0.00 | 52 | 1019.8 |
| 20260901192201 | 94 | 215 | 2.6 | 5.2 | 0.00 | 0.00 | 0.00 | 51 | 1019.7 |
| 20260901191657 | 96 | 213 | 1.7 | 2.6 | 0.00 | 0.00 | 0.00 | 54 | 1019.8 |
| 20260901191153 | 95 | 213 | 0.0 | 1.7 | 0.00 | 0.00 | 0.00 | 52 | 1020.1 |
| 20260901190649 | 94 | 212 | 1.7 | 1.7 | 0.00 | 0.00 | 0.00 | 52 | 1020.1 |
| 20260901190148 | 93 | 212 | 0.0 | 0.9 | 0.00 | 0.00 | 0.00 | 53 | 1020.2 |
| 20260901185647 | 92 | 213 | 0.0 | 0.0 | 0.00 | 0.00 | 0.00 | 52 | 1020.4 |
| 20260901185145 | 93 | 213 | 0.9 | 5.2 | 0.00 | 0.00 | 0.00 | 55 | 1020.4 |
| 20260901184641 | 93 | 212 | 0.0 | 0.9 | 0.00 | 0.00 | 0.00 | 53 | 1020.3 |
| 20260901184136 | 92 | 213 | 1.7 | 5.2 | 0.00 | 0.00 | 0.00 | 56 | 1020.3 |
| 20260901183632 | 92 | 212 | 0.0 | 1.7 | 0.00 | 0.00 | 0.00 | 57 | 1020.3 |
| 20260901183127 | 91 | 212 | 0.0 | 1.7 | 0.00 | 0.00 | 0.00 | 60 | 1020.4 |
| 20260901182623 | 91 | 212 | 0.0 | 1.7 | 0.00 | 0.00 | 0.00 | 62 | 1020.4 |
| 20260901182122 | 91 | 212 | 0.0 | 1.7 | 0.00 | 0.00 | 0.00 | 59 | 1020.3 |
| 20260901181622 | 91 | 212 | 0.0 | 1.7 | 0.00 | 0.00 | 0.00 | 58 | 1020.5 |
| 20260901181121 | 91 | 212 | 1.7 | 2.6 | 0.00 | 0.00 | 0.00 | 59 | 1020.4 |
| 20260901180616 | 91 | 212 | 0.0 | 5.2 | 0.00 | 0.00 | 0.00 | 59 | 1020.5 |
| 20260901180110 | 90 | 212 | 1.7 | 6.1 | 0.00 | 0.00 | 0.00 | 62 | 1020.6 |
| 20260901175609 | 90 | 212 | 2.6 | 6.1 | 0.00 | 0.00 | 0.00 | 59 | 1020.8 |
| 20260901175104 | 91 | 212 | 2.6 | 6.1 | 0.00 | 0.00 | 0.00 | 61 | 1020.7 |
| 20260901174600 | 90 | 212 | 0.9 | 2.6 | 0.00 | 0.00 | 0.00 | 61 | 1020.9 |
| 20260901174055 | 91 | 212 | 2.6 | 2.6 | 0.00 | 0.00 | 0.00 | 59 | 1020.6 |
| 20260901173549 | 90 | 212 | 2.6 | 2.6 | 0.00 | 0.00 | 0.00 | 59 | 1020.8 |
| 20260901173045 | 90 | 212 | 0.9 | 1.7 | 0.00 | 0.00 | 0.00 | 60 | 1021.0 |
| 20260901172541 | 90 | 212 | 0.9 | 3.5 | 0.00 | 0.00 | 0.00 | 61 | 1021.1 |
| 20260901172038 | 90 | 212 | 1.7 | 3.5 | 0.00 | 0.00 | 0.00 | 61 | 1021.2 |
| 20260901171533 | 90 | 212 | 1.7 | 2.6 | 0.00 | 0.00 | 0.00 | 62 | 1021.1 |
| 20260901171032 | 90 | 212 | 0.9 | 6.1 | 0.00 | 0.00 | 0.00 | 60 | 1021.3 |
| 20260901170531 | 89 | 212 | 1.7 | 3.5 | 0.00 | 0.00 | 0.00 | 62 | 1021.2 |
| 20260901170026 | 89 | 211 | 1.7 | 2.6 | 0.00 | 0.00 | 0.00 | 60 | 1021.3 |
| 20260901165521 | 89 | 211 | 0.9 | 2.6 | 0.00 | 0.00 | 0.00 | 61 | 1021.5 |
| 20260901165016 | 90 | 212 | 2.6 | 2.6 | 0.00 | 0.00 | 0.00 | 63 | 1021.5 |
| 20260901164512 | 89 | 211 | 0.0 | 0.0 | 0.00 | 0.00 | 0.00 | 65 | 1021.6 |
| 20260901164006 | 89 | 211 | 0.0 | 1.7 | 0.00 | 0.00 | 0.00 | 63 | 1021.6 |
| 20260901163502 | 89 | 211 | 0.0 | 1.7 | 0.00 | 0.00 | 0.00 | 64 | 1021.7 |
| 20260901163000 | 89 | 212 | 0.9 | 1.7 | 0.00 | 0.00 | 0.00 | 64 | 1021.7 |
| 20260901162456 | 88 | 211 | 0.0 | 1.7 | 0.00 | 0.00 | 0.00 | 68 | 1021.8 |
| 20260901161955 | 88 | 211 | 0.0 | 0.0 | 0.00 | 0.00 | 0.00 | 67 | 1021.7 |
| 20260901161455 | 88 | 211 | 0.0 | 1.7 | 0.00 | 0.00 | 0.00 | 67 | 1021.9 |
| 20260901160949 | 88 | 211 | 0.0 | 0.0 | 0.00 | 0.00 | 0.00 | 68 | 1021.8 |
| 20260901160446 | 88 | 212 | 0.9 | 1.7 | 0.00 | 0.00 | 0.00 | 66 | 1021.8 |
| 20260901155944 | 88 | 211 | 0.9 | 2.6 | 0.00 | 0.00 | 0.00 | 68 | 1021.9 |
| 20260901155444 | 87 | 211 | 0.0 | 0.0 | 0.00 | 0.00 | 0.00 | 68 | 1021.9 |
| 20260901154941 | 87 | 211 | 0.9 | 2.6 | 0.00 | 0.00 | 0.00 | 69 | 1022.3 |
| 20260901154440 | 87 | 211 | 0.0 | 0.0 | 0.00 | 0.00 | 0.00 | 69 | 1022.0 |
| 20260901153935 | 87 | 211 | 0.0 | 0.9 | 0.00 | 0.00 | 0.00 | 69 | 1022.3 |
| 20260901153430 | 87 | 211 | 0.9 | 1.7 | 0.00 | 0.00 | 0.00 | 71 | 1022.2 |
| 20260901152929 | 86 | 211 | 0.0 | 0.0 | 0.00 | 0.00 | 0.00 | 72 | 1022.2 |
| 20260901152429 | 85 | 212 | 1.7 | 1.7 | 0.00 | 0.00 | 0.00 | 73 | 1022.2 |
| 20260901151929 | 85 | 211 | 0.0 | 0.0 | 0.00 | 0.00 | 0.00 | 73 | 1022.3 |
| 20260901151424 | 85 | 211 | 0.0 | 0.0 | 0.00 | 0.00 | 0.00 | 74 | 1022.2 |
| 20260901150923 | 85 | 211 | 0.9 | 1.7 | 0.00 | 0.00 | 0.00 | 75 | 1022.2 |
| 20260901150421 | 84 | 211 | 0.0 | 1.7 | 0.00 | 0.00 | 0.00 | 77 | 1022.3 |
| 20260901145918 | 85 | 211 | 1.7 | 2.6 | 0.00 | 0.00 | 0.00 | 77 | 1022.4 |
| 20260901145413 | 84 | 211 | 0.0 | 0.0 | 0.00 | 0.00 | 0.00 | 80 | 1022.4 |
| 20260901144908 | 84 | 211 | 0.0 | 0.9 | 0.00 | 0.00 | 0.00 | 81 | 1022.3 |
| 20260901144403 | 84 | 211 | 0.0 | 0.9 | 0.00 | 0.00 | 0.00 | 80 | 1022.3 |
| 20260901143859 | 83 | 211 | 0.0 | 0.0 | 0.00 | 0.00 | 0.00 | 79 | 1022.2 |
| 20260901143355 | 82 | 212 | 0.0 | 0.9 | 0.00 | 0.00 | 0.00 | 81 | 1022.2 |
| 20260901142851 | 82 | 212 | 0.0 | 0.9 | 0.00 | 0.00 | 0.00 | 82 | 1022.3 |
| 20260901142350 | 82 | 212 | 1.7 | 1.7 | 0.00 | 0.00 | 0.00 | 81 | 1022.2 |
| 20260901141845 | 82 | 212 | 0.0 | 0.9 | 0.00 | 0.00 | 0.00 | 82 | 1022.0 |
| 20260901141341 | 82 | 212 | 1.7 | 2.6 | 0.00 | 0.00 | 0.00 | 82 | 1022.2 |
| 20260901140839 | 82 | 212 | 0.0 | 0.9 | 0.00 | 0.00 | 0.00 | 82 | 1022.2 |
| 20260901140338 | 82 | 212 | 0.0 | 0.0 | 0.00 | 0.00 | 0.00 | 83 | 1021.9 |
| 20260901135833 | 81 | 212 | 0.0 | 0.0 | 0.00 | 0.00 | 0.00 | 84 | 1022.3 |
| 20260901135328 | 81 | 212 | 0.9 | 1.7 | 0.00 | 0.00 | 0.00 | 83 | 1022.2 |
| 20260901134824 | 81 | 212 | 0.0 | 0.0 | 0.00 | 0.00 | 0.00 | 84 | 1022.4 |
| 20260901134319 | 80 | 212 | 0.0 | 0.0 | 0.00 | 0.00 | 0.00 | 85 | 1022.2 |
| 20260901133813 | 79 | 212 | 0.0 | 0.0 | 0.00 | 0.00 | 0.00 | 86 | 1022.1 |
| 20260901133312 | 79 | 212 | 0.0 | 0.0 | 0.00 | 0.00 | 0.00 | 87 | 1022.3 |
| 20260901132811 | 79 | 212 | 0.0 | 0.0 | 0.00 | 0.00 | 0.00 | 86 | 1022.3 |
| 20260901132307 | 79 | 212 | 0.0 | 0.0 | 0.00 | 0.00 | 0.00 | 87 | 1022.2 |
| 20260901131800 | 78 | 212 | 0.0 | 0.0 | 0.00 | 0.00 | 0.00 | 87 | 1022.3 |
| 20260901131300 | 78 | 212 | 0.0 | 0.0 | 0.00 | 0.00 | 0.00 | 88 | 1022.3 |
| 20260901130755 | 78 | 212 | 0.0 | 0.0 | 0.00 | 0.00 | 0.00 | 88 | 1022.3 |
| 20260901130255 | 78 | 206 | 0.0 | 0.0 | 0.00 | 0.00 | 0.00 | 89 | 1022.3 |
| 20260901125753 | 78 | 212 | 0.0 | 0.0 | 0.00 | 0.00 | 0.00 | 87 | 1022.2 |
| 20260901125247 | 80 | 212 | 0.0 | 0.0 | 0.00 | 0.00 | 0.00 | 85 | 1022.4 |
| 20260901124742 | 79 | 212 | 0.0 | 0.0 | 0.00 | 0.00 | 0.00 | 87 | 1022.4 |
| 20260901124237 | 79 | 212 | 0.0 | 0.0 | 0.00 | 0.00 | 0.00 | 86 | 1022.3 |
| 20260901123737 | 78 | 212 | 0.0 | 0.0 | 0.00 | 0.00 | 0.00 | 87 | 1022.3 |
| 20260901123231 | 77 | 212 | 0.0 | 0.0 | 0.00 | 0.00 | 0.00 | 90 | 1022.3 |
| 20260901122730 | 76 | 212 | 0.0 | 0.0 | 0.00 | 0.00 | 0.00 | 92 | 1022.3 |
| 20260901122225 | 75 | 212 | 0.0 | 0.0 | 0.00 | 0.00 | 0.00 | 94 | 1022.3 |
| 20260901121719 | 73 | 212 | 0.0 | 0.0 | 0.00 | 0.00 | 0.00 | 99 | 1022.1 |
| 20260901121215 | 73 | 212 | 0.0 | 0.0 | 0.00 | 0.00 | 0.00 | 99 | 1021.9 |
| 20260901120714 | 72 | 211 | 0.0 | 0.0 | 0.00 | 0.00 | 0.00 | 99 | 1021.9 |
| 20260901120209 | 72 | 211 | 0.0 | 0.0 | 0.00 | 0.00 | 0.00 | 99 | 1021.9 |
| 20260901115704 | 71 | 211 | 0.0 | 0.0 | 0.00 | 0.00 | 0.00 | 99 | 1022.0 |
| 20260901115201 | 71 | 211 | 0.0 | 0.0 | 0.00 | 0.00 | 0.00 | 99 | 1021.8 |
| 20260901114657 | 70 | 211 | 0.0 | 0.0 | 0.00 | 0.00 | 0.00 | 99 | 1021.7 |
| 20260901114156 | 70 | 211 | 0.0 | 0.0 | 0.00 | 0.00 | 0.00 | 99 | 1021.6 |
| 20260901113655 | 70 | 211 | 0.0 | 0.0 | 0.00 | 0.00 | 0.00 | 99 | 1021.7 |
| 20260901113151 | 70 | 211 | 0.0 | 0.0 | 0.00 | 0.00 | 0.00 | 99 | 1021.7 |
| 20260901112650 | 70 | 211 | 0.0 | 0.0 | 0.00 | 0.00 | 0.00 | 99 | 1021.3 |
| 20260901112145 | 70 | 211 | 0.0 | 0.0 | 0.00 | 0.00 | 0.00 | 99 | 1021.5 |
| 20260901111644 | 70 | 211 | 0.0 | 0.0 | 0.00 | 0.00 | 0.00 | 99 | 1021.3 |
| 20260901111144 | 70 | 211 | 0.0 | 0.0 | 0.00 | 0.00 | 0.00 | 99 | 1021.3 |
| 20260901110639 | 70 | 211 | 0.0 | 0.0 | 0.00 | 0.00 | 0.00 | 99 | 1021.1 |
| 20260901110134 | 70 | 211 | 0.0 | 0.0 | 0.00 | 0.00 | 0.00 | 99 | 1021.0 |
| 20260901105630 | 70 | 211 | 0.0 | 0.0 | 0.00 | 0.00 | 0.00 | 99 | 1021.0 |
| 20260901105130 | 70 | 211 | 0.0 | 0.0 | 0.00 | 0.00 | 0.00 | 99 | 1021.0 |
| 20260901104626 | 70 | 211 | 0.0 | 0.0 | 0.00 | 0.00 | 0.00 | 99 | 1021.0 |
| 20260901104121 | 70 | 211 | 0.0 | 0.0 | 0.00 | 0.00 | 0.00 | 99 | 1020.9 |
| 20260901103620 | 70 | 211 | 0.0 | 0.0 | 0.00 | 0.00 | 0.00 | 99 | 1020.9 |
| 20260901103116 | 70 | 211 | 0.0 | 0.0 | 0.00 | 0.00 | 0.00 | 99 | 1020.8 |
| 20260901102610 | 70 | 211 | 0.0 | 0.0 | 0.00 | 0.00 | 0.00 | 99 | 1020.9 |
| 20260901102105 | 70 | 211 | 0.0 | 0.0 | 0.00 | 0.00 | 0.00 | 99 | 1020.8 |
| 20260901101601 | 70 | 211 | 0.0 | 0.0 | 0.00 | 0.00 | 0.00 | 99 | 1020.9 |
| 20260901101100 | 70 | 211 | 0.0 | 0.0 | 0.00 | 0.00 | 0.00 | 99 | 1020.7 |
| 20260901100559 | 70 | 211 | 0.0 | 0.0 | 0.00 | 0.00 | 0.00 | 99 | 1020.9 |
| 20260901100054 | 70 | 211 | 0.0 | 0.0 | 0.00 | 0.00 | 0.00 | 99 | 1020.9 |
| 20260901095552 | 70 | 211 | 0.0 | 0.0 | 0.00 | 0.00 | 0.00 | 99 | 1020.9 |
| 20260901095050 | 70 | 211 | 0.0 | 0.0 | 0.00 | 0.00 | 0.00 | 99 | 1020.9 |
| 20260901094546 | 70 | 211 | 0.0 | 0.0 | 0.00 | 0.00 | 0.00 | 99 | 1020.9 |
| 20260901094045 | 70 | 211 | 0.0 | 0.0 | 0.00 | 0.00 | 0.00 | 99 | 1020.9 |
| 20260901093540 | 71 | 211 | 0.0 | 0.0 | 0.00 | 0.00 | 0.00 | 99 | 1020.7 |
| 20260901093034 | 70 | 211 | 0.0 | 0.0 | 0.00 | 0.00 | 0.00 | 99 | 1020.7 |
| 20260901092530 | 70 | 211 | 0.0 | 0.0 | 0.00 | 0.00 | 0.00 | 99 | 1020.8 |
| 20260901092026 | 70 | 211 | 0.0 | 0.0 | 0.00 | 0.00 | 0.00 | 99 | 1020.6 |
| 20260901091521 | 70 | 211 | 0.0 | 0.0 | 0.00 | 0.00 | 0.00 | 99 | 1020.5 |
| 20260901091016 | 70 | 211 | 0.0 | 0.0 | 0.00 | 0.00 | 0.00 | 99 | 1020.6 |
| 20260901090515 | 71 | 211 | 0.0 | 0.0 | 0.00 | 0.00 | 0.00 | 99 | 1020.4 |
| 20260901090011 | 71 | 211 | 0.0 | 0.0 | 0.00 | 0.00 | 0.00 | 99 | 1020.4 |
| 20260901085506 | 71 | 211 | 0.0 | 0.0 | 0.00 | 0.00 | 0.00 | 99 | 1020.3 |
| 20260901084957 | 71 | 211 | 0.0 | 0.0 | 0.00 | 0.00 | 0.00 | 99 | 1020.3 |
| 20260901084453 | 71 | 211 | 0.0 | 0.0 | 0.00 | 0.00 | 0.00 | 99 | 1020.4 |
| 20260901083948 | 71 | 211 | 0.0 | 0.0 | 0.00 | 0.00 | 0.00 | 99 | 1020.6 |
| 20260901083443 | 71 | 211 | 0.0 | 0.0 | 0.00 | 0.00 | 0.00 | 99 | 1020.4 |
| 20260901082935 | 71 | 211 | 0.0 | 0.0 | 0.00 | 0.00 | 0.00 | 99 | 1020.4 |
| 20260901082431 | 71 | 211 | 0.0 | 0.0 | 0.00 | 0.00 | 0.00 | 99 | 1020.3 |
| 20260901081925 | 71 | 211 | 0.0 | 0.0 | 0.00 | 0.00 | 0.00 | 99 | 1020.4 |
| 20260901081420 | 71 | 211 | 0.0 | 0.0 | 0.00 | 0.00 | 0.00 | 99 | 1020.3 |
| 20260901080915 | 71 | 211 | 0.0 | 0.0 | 0.00 | 0.00 | 0.00 | 99 | 1020.3 |
| 20260901080409 | 71 | 211 | 0.0 | 0.0 | 0.00 | 0.00 | 0.00 | 99 | 1020.3 |
| 20260901075903 | 71 | 211 | 0.0 | 0.0 | 0.00 | 0.00 | 0.00 | 99 | 1020.3 |
| 20260901075359 | 71 | 211 | 0.0 | 0.0 | 0.00 | 0.00 | 0.00 | 99 | 1020.3 |
| 20260901074854 | 71 | 211 | 0.0 | 0.0 | 0.00 | 0.00 | 0.00 | 99 | 1020.4 |
| 20260901074353 | 71 | 211 | 0.0 | 0.0 | 0.00 | 0.00 | 0.00 | 99 | 1020.3 |
| 20260901073849 | 71 | 211 | 0.0 | 0.0 | 0.00 | 0.00 | 0.00 | 99 | 1020.3 |
| 20260901073345 | 71 | 211 | 0.0 | 0.0 | 0.00 | 0.00 | 0.00 | 99 | 1020.4 |
| 20260901072841 | 71 | 211 | 0.0 | 0.0 | 0.00 | 0.00 | 0.00 | 99 | 1020.3 |
| 20260901072340 | 71 | 211 | 0.0 | 0.0 | 0.00 | 0.00 | 0.00 | 99 | 1020.4 |
| 20260901071836 | 71 | 211 | 0.0 | 0.0 | 0.00 | 0.00 | 0.00 | 99 | 1020.3 |
| 20260901071334 | 72 | 211 | 0.0 | 0.0 | 0.00 | 0.00 | 0.00 | 99 | 1020.5 |
| 20260901070833 | 72 | 211 | 0.0 | 0.0 | 0.00 | 0.00 | 0.00 | 99 | 1020.5 |
| 20260901070329 | 71 | 211 | 0.0 | 0.0 | 0.00 | 0.00 | 0.00 | 99 | 1020.2 |
| 20260901065828 | 71 | 211 | 0.0 | 0.0 | 0.00 | 0.00 | 0.00 | 99 | 1020.6 |
| 20260901065323 | 72 | 211 | 0.0 | 0.0 | 0.00 | 0.00 | 0.00 | 99 | 1020.6 |
| 20260901064819 | 72 | 211 | 0.0 | 0.0 | 0.00 | 0.00 | 0.00 | 99 | 1020.4 |
| 20260901064315 | 72 | 211 | 0.0 | 0.0 | 0.00 | 0.00 | 0.00 | 99 | 1020.5 |
| 20260901063812 | 72 | 211 | 0.0 | 0.0 | 0.00 | 0.00 | 0.00 | 99 | 1020.5 |
| 20260901063308 | 72 | 211 | 0.0 | 0.0 | 0.00 | 0.00 | 0.00 | 98 | 1020.3 |
| 20260901062804 | 72 | 211 | 0.0 | 0.0 | 0.00 | 0.00 | 0.00 | 98 | 1020.6 |
| 20260901062300 | 72 | 211 | 0.0 | 0.0 | 0.00 | 0.00 | 0.00 | 98 | 1020.6 |
| 20260901061755 | 72 | 211 | 0.0 | 0.0 | 0.00 | 0.00 | 0.00 | 98 | 1020.5 |
| 20260901061255 | 73 | 211 | 0.0 | 0.0 | 0.00 | 0.00 | 0.00 | 98 | 1020.7 |
| 20260901060750 | 72 | 211 | 0.0 | 0.0 | 0.00 | 0.00 | 0.00 | 98 | 1020.6 |
| 20260901060246 | 72 | 204 | 0.0 | 0.0 | 0.00 | 0.00 | 0.00 | 98 | 1020.5 |
| 20260901055741 | 72 | 211 | 0.0 | 0.0 | 0.00 | 0.00 | 0.00 | 98 | 1020.6 |
| 20260901055237 | 73 | 211 | 0.0 | 0.0 | 0.00 | 0.00 | 0.00 | 98 | 1020.7 |
| 20260901054734 | 73 | 211 | 0.0 | 0.0 | 0.00 | 0.00 | 0.00 | 98 | 1020.7 |
| 20260901054230 | 73 | 211 | 0.0 | 0.0 | 0.00 | 0.00 | 0.00 | 98 | 1020.6 |
| 20260901053726 | 73 | 211 | 0.0 | 0.0 | 0.00 | 0.00 | 0.00 | 98 | 1020.5 |
| 20260901053221 | 73 | 211 | 0.0 | 0.0 | 0.00 | 0.00 | 0.00 | 98 | 1020.6 |
| 20260901052716 | 73 | 211 | 0.0 | 0.0 | 0.00 | 0.00 | 0.00 | 98 | 1020.4 |
| 20260901052212 | 73 | 211 | 0.0 | 0.0 | 0.00 | 0.00 | 0.00 | 98 | 1020.5 |
| 20260901051711 | 73 | 211 | 0.0 | 0.0 | 0.00 | 0.00 | 0.00 | 98 | 1020.6 |
| 20260901051211 | 73 | 211 | 0.0 | 0.0 | 0.00 | 0.00 | 0.00 | 98 | 1020.5 |
| 20260901050706 | 73 | 211 | 0.0 | 0.0 | 0.00 | 0.00 | 0.00 | 98 | 1020.5 |
| 20260901050201 | 73 | 211 | 0.0 | 0.0 | 0.00 | 0.00 | 0.00 | 98 | 1020.4 |
| 20260901045656 | 73 | 211 | 0.0 | 0.0 | 0.00 | 0.00 | 0.00 | 98 | 1020.6 |
| 20260901045151 | 73 | 211 | 0.0 | 0.0 | 0.00 | 0.00 | 0.00 | 98 | 1020.4 |
| 20260901044647 | 73 | 211 | 0.0 | 0.0 | 0.00 | 0.00 | 0.00 | 97 | 1020.7 |
| 20260901044143 | 73 | 211 | 0.0 | 0.0 | 0.00 | 0.00 | 0.00 | 97 | 1020.5 |
| 20260901043638 | 73 | 211 | 0.0 | 0.0 | 0.00 | 0.00 | 0.00 | 97 | 1020.6 |
| 20260901043134 | 73 | 211 | 0.0 | 0.0 | 0.00 | 0.00 | 0.00 | 96 | 1020.5 |
| 20260901042633 | 74 | 211 | 0.0 | 0.0 | 0.00 | 0.00 | 0.00 | 96 | 1020.6 |
| 20260901042128 | 74 | 211 | 0.0 | 0.0 | 0.00 | 0.00 | 0.00 | 96 | 1020.6 |
| 20260901041624 | 74 | 211 | 0.0 | 0.0 | 0.00 | 0.00 | 0.00 | 96 | 1020.4 |
| 20260901041119 | 74 | 211 | 0.0 | 0.0 | 0.00 | 0.00 | 0.00 | 96 | 1020.5 |
| 20260901040618 | 74 | 211 | 0.0 | 0.0 | 0.00 | 0.00 | 0.00 | 96 | 1020.5 |
| 20260901040112 | 74 | 211 | 0.0 | 0.0 | 0.00 | 0.00 | 0.00 | 96 | 1020.5 |
| 20260901035611 | 74 | 204 | 0.0 | 0.0 | 0.00 | 0.00 | 0.00 | 96 | 1020.5 |
| 20260901035110 | 74 | 211 | 0.0 | 0.0 | 0.00 | 0.00 | 0.00 | 96 | 1020.4 |
| 20260901034609 | 74 | 211 | 0.0 | 0.0 | 0.00 | 0.00 | 0.00 | 96 | 1020.5 |
| 20260901034104 | 74 | 211 | 0.0 | 0.0 | 0.00 | 0.00 | 0.00 | 95 | 1020.4 |
| 20260901033603 | 74 | 211 | 0.0 | 0.0 | 0.00 | 0.00 | 0.00 | 95 | 1020.4 |
| 20260901033058 | 74 | 211 | 0.0 | 0.0 | 0.00 | 0.00 | 0.00 | 95 | 1020.2 |
| 20260901032556 | 74 | 211 | 0.0 | 0.0 | 0.00 | 0.00 | 0.00 | 95 | 1020.5 |
| 20260901032051 | 75 | 211 | 0.0 | 0.0 | 0.00 | 0.00 | 0.00 | 95 | 1020.4 |
| 20260901031547 | 75 | 211 | 0.0 | 0.0 | 0.00 | 0.00 | 0.00 | 94 | 1020.4 |
| 20260901031042 | 75 | 211 | 0.0 | 0.0 | 0.00 | 0.00 | 0.00 | 94 | 1020.3 |
| 20260901030536 | 75 | 211 | 0.0 | 0.0 | 0.00 | 0.00 | 0.00 | 94 | 1020.1 |
| 20260901030036 | 75 | 211 | 0.0 | 0.0 | 0.00 | 0.00 | 0.00 | 93 | 1020.2 |
| 20260901025530 | 75 | 211 | 0.0 | 0.0 | 0.00 | 0.00 | 0.00 | 93 | 1020.5 |
| 20260901025025 | 75 | 211 | 0.0 | 0.0 | 0.00 | 0.00 | 0.00 | 93 | 1020.5 |
| 20260901024520 | 76 | 211 | 0.0 | 0.0 | 0.00 | 0.00 | 0.00 | 93 | 1020.2 |
| 20260901024019 | 76 | 211 | 0.0 | 0.0 | 0.00 | 0.00 | 0.00 | 93 | 1020.4 |
| 20260901023513 | 76 | 211 | 0.0 | 0.0 | 0.00 | 0.00 | 0.00 | 92 | 1020.3 |
| 20260901023008 | 76 | 211 | 0.0 | 0.0 | 0.00 | 0.00 | 0.00 | 92 | 1020.1 |
| 20260901022503 | 76 | 211 | 0.0 | 0.0 | 0.00 | 0.00 | 0.00 | 91 | 1020.2 |
| 20260901021958 | 76 | 211 | 0.0 | 0.0 | 0.00 | 0.00 | 0.00 | 91 | 1020.2 |
| 20260901021454 | 76 | 211 | 0.0 | 0.0 | 0.00 | 0.00 | 0.00 | 91 | 1020.2 |
| 20260901020949 | 76 | 211 | 0.0 | 0.0 | 0.00 | 0.00 | 0.00 | 90 | 1020.3 |
| 20260901020445 | 77 | 211 | 0.0 | 0.0 | 0.00 | 0.00 | 0.00 | 90 | 1020.1 |
| 20260901015943 | 77 | 211 | 0.0 | 0.0 | 0.00 | 0.00 | 0.00 | 89 | 1020.4 |
| 20260901015440 | 76 | 211 | 0.0 | 0.0 | 0.00 | 0.00 | 0.00 | 88 | 1020.0 |
| 20260901014939 | 77 | 211 | 0.0 | 0.0 | 0.00 | 0.00 | 0.00 | 90 | 1020.0 |
| 20260901014436 | 77 | 211 | 0.0 | 0.0 | 0.00 | 0.00 | 0.00 | 90 | 1019.9 |
| 20260901013931 | 77 | 211 | 0.0 | 0.0 | 0.00 | 0.00 | 0.00 | 89 | 1019.9 |
| 20260901013427 | 77 | 211 | 0.0 | 0.0 | 0.00 | 0.00 | 0.00 | 90 | 1019.9 |
| 20260901012922 | 77 | 211 | 0.0 | 0.0 | 0.00 | 0.00 | 0.00 | 89 | 1020.0 |
| 20260901012416 | 78 | 211 | 0.0 | 0.0 | 0.00 | 0.00 | 0.00 | 88 | 1019.8 |
| 20260901011912 | 78 | 211 | 0.0 | 0.0 | 0.00 | 0.00 | 0.00 | 88 | 1019.8 |
| 20260901011408 | 78 | 211 | 0.0 | 0.0 | 0.00 | 0.00 | 0.00 | 87 | 1019.6 |
| 20260901010906 | 78 | 211 | 0.0 | 0.0 | 0.00 | 0.00 | 0.00 | 86 | 1019.5 |
| 20260901010401 | 78 | 211 | 0.0 | 0.0 | 0.00 | 0.00 | 0.00 | 86 | 1019.4 |
| 20260901005859 | 79 | 211 | 0.0 | 0.0 | 0.00 | 0.00 | 0.00 | 86 | 1019.6 |
| 20260901005355 | 79 | 211 | 0.0 | 0.0 | 0.00 | 0.00 | 0.00 | 87 | 1019.5 |
| 20260901004845 | 79 | 212 | 0.0 | 0.0 | 0.00 | 0.00 | 0.00 | 86 | 1019.4 |
| 20260901004344 | 80 | 211 | 0.0 | 0.0 | 0.00 | 0.00 | 0.00 | 84 | 1019.5 |
| 20260901003838 | 80 | 211 | 0.0 | 0.0 | 0.00 | 0.00 | 0.00 | 85 | 1019.3 |
| 20260901003334 | 80 | 211 | 0.0 | 0.0 | 0.00 | 0.00 | 0.00 | 85 | 1019.3 |
| 20260901002832 | 81 | 211 | 0.0 | 0.0 | 0.00 | 0.00 | 0.00 | 85 | 1019.5 |
| 20260901002326 | 82 | 205 | 0.0 | 0.0 | 0.00 | 0.00 | 0.00 | 84 | 1019.4 |
| 20260901001821 | 82 | 211 | 0.0 | 0.0 | 0.00 | 0.00 | 0.00 | 83 | 1019.4 |
| 20260901001316 | 82 | 211 | 0.0 | 0.0 | 0.00 | 0.00 | 0.00 | 80 | 1019.3 |
| 20260901000811 | 83 | 211 | 0.0 | 0.0 | 0.00 | 0.00 | 0.00 | 79 | 1019.3 |
| 20260901000307 | 83 | 211 | 0.0 | 0.0 | 0.00 | 0.00 | 0.00 | 78 | 1019.3 |
| 20260831235804 | 85 | 211 | 0.0 | 0.0 | 0.00 | 0.00 | 0.00 | 80 | 1019.0 |
| 20260831235301 | 85 | 211 | 0.0 | 0.0 | 0.00 | 0.00 | 0.00 | 76 | 1019.4 |
| 20260831234755 | 86 | 211 | 0.0 | 0.0 | 0.00 | 0.00 | 0.00 | 76 | 1019.4 |
| 20260831234255 | 87 | 211 | 0.0 | 0.0 | 0.00 | 0.00 | 0.00 | 74 | 1019.3 |
| 20260831233751 | 89 | 211 | 0.0 | 0.0 | 0.00 | 0.00 | 0.00 | 71 | 1019.6 |
| 20260831233246 | 91 | 211 | 0.0 | 0.0 | 0.00 | 0.00 | 0.00 | 65 | 1019.6 |
| 20260831232741 | 90 | 211 | 0.0 | 0.0 | 0.00 | 0.00 | 0.00 | 66 | 1019.6 |
| 20260831232237 | 89 | 211 | 0.0 | 0.0 | 0.00 | 0.00 | 0.00 | 68 | 1019.6 |
| 20260831231733 | 91 | 211 | 0.0 | 0.0 | 0.00 | 0.00 | 0.00 | 63 | 1019.4 |
| 20260831231230 | 94 | 211 | 0.0 | 0.0 | 0.00 | 0.00 | 0.00 | 58 | 1019.3 |
| 20260831230724 | 94 | 211 | 0.0 | 0.0 | 0.00 | 0.00 | 0.00 | 55 | 1019.5 |
| 20260831230219 | 95 | 211 | 0.0 | 0.0 | 0.00 | 0.00 | 0.00 | 54 | 1019.5 |
| 20260831225718 | 95 | 211 | 0.0 | 0.0 | 0.00 | 0.00 | 0.00 | 51 | 1019.4 |
| 20260831225213 | 95 | 211 | 0.0 | 0.0 | 0.00 | 0.00 | 0.00 | 50 | 1019.5 |
| 20260831224703 | 92 | 211 | 0.0 | 0.0 | 0.00 | 0.00 | 0.00 | 57 | 1019.7 |
| 20260831224158 | 93 | 211 | 0.0 | 0.0 | 0.00 | 0.00 | 0.00 | 53 | 1019.5 |
| 20260831223654 | 94 | 211 | 0.0 | 0.0 | 0.00 | 0.00 | 0.00 | 52 | 1019.7 |
| 20260831223150 | 94 | 211 | 0.0 | 0.0 | 0.00 | 0.00 | 0.00 | 53 | 1019.6 |
| 20260831222646 | 93 | 211 | 0.0 | 0.0 | 0.00 | 0.00 | 0.00 | 52 | 1019.7 |
| 20260831222141 | 94 | 211 | 0.0 | 0.0 | 0.00 | 0.00 | 0.00 | 50 | 1019.9 |
| 20260831221637 | 94 | 211 | 0.0 | 0.9 | 0.00 | 0.00 | 0.00 | 50 | 1019.8 |
| 20260831221131 | 93 | 211 | 0.9 | 1.7 | 0.00 | 0.00 | 0.00 | 50 | 1019.7 |
| 20260831220627 | 94 | 211 | 2.6 | 2.6 | 0.00 | 0.00 | 0.00 | 48 | 1019.8 |
| 20260831220122 | 93 | 211 | 0.0 | 0.0 | 0.00 | 0.00 | 0.00 | 52 | 1019.8 |
| 20260831215617 | 93 | 211 | 0.0 | 0.0 | 0.00 | 0.00 | 0.00 | 50 | 1019.8 |
| 20260831215113 | 95 | 211 | 0.0 | 0.0 | 0.00 | 0.00 | 0.00 | 49 | 1020.2 |
| 20260831214610 | 94 | 211 | 2.6 | 2.6 | 0.00 | 0.00 | 0.00 | 50 | 1019.9 |
| 20260831214106 | 94 | 211 | 0.9 | 1.7 | 0.00 | 0.00 | 0.00 | 49 | 1020.0 |
| 20260831213603 | 95 | 211 | 1.7 | 2.6 | 0.00 | 0.00 | 0.00 | 50 | 1019.9 |
| 20260831213057 | 95 | 211 | 0.0 | 0.9 | 0.00 | 0.00 | 0.00 | 49 | 1019.9 |
| 20260831212554 | 94 | 211 | 0.0 | 0.9 | 0.00 | 0.00 | 0.00 | 52 | 1020.0 |
| 20260831212050 | 94 | 211 | 0.0 | 2.6 | 0.00 | 0.00 | 0.00 | 53 | 1020.1 |
| 20260831211548 | 94 | 211 | 0.9 | 2.6 | 0.00 | 0.00 | 0.00 | 50 | 1020.0 |
| 20260831211048 | 93 | 211 | 0.0 | 0.0 | 0.00 | 0.00 | 0.00 | 51 | 1020.0 |
| 20260831210538 | 92 | 211 | 0.0 | 1.7 | 0.00 | 0.00 | 0.00 | 52 | 1020.0 |
| 20260831210034 | 93 | 211 | 2.6 | 2.6 | 0.00 | 0.00 | 0.00 | 53 | 1020.2 |
| 20260831205534 | 93 | 211 | 1.7 | 3.5 | 0.00 | 0.00 | 0.00 | 51 | 1020.1 |
| 20260831205029 | 93 | 211 | 0.0 | 3.5 | 0.00 | 0.00 | 0.00 | 52 | 1020.3 |
| 20260831204524 | 94 | 211 | 1.7 | 1.7 | 0.00 | 0.00 | 0.00 | 51 | 1020.4 |
| 20260831204022 | 94 | 211 | 0.0 | 1.7 | 0.00 | 0.00 | 0.00 | 50 | 1020.5 |